Pike Road, Alabama
Current Conditions -  °F | °C
As of 6:58 PM on Sunday 21 Dec 2014 (Local Time) from KMXF Reporting Station
Overcast Overcast  
Wind Chill: 54°   Ceiling: 1100
Heat Index: 54°   Visibility: 10mi
Dew Point: 49°   Wind: 7mph
Humidity: 85%   Direction: 90°E
Pressure: 30.06"   Gusts: NA
Location:  32.28°N, 86.1°W
Report Text: KMXF 220058Z AUTO 09006KT 10SM OVC011 12/10 A3006 RMK AO2 SLP182 T01210097
Loading
Personal Weather Stations






























Interactive Weather Map New forecast layout! Learn more

10-Day Weather Forecast

Advertisements
Track Severe Weather on mobile